Time;durP1;ratioP1;P1;durP2;ratioP2;P2;SDS_P1;SDS_P2;PMS_P1;PMS_P2;Temp;Humidity;BMP_temperature;BMP_pressure;BME280_temperature;BME280_humidity;BME280_pressure;Samples;Min_cycle;Max_cycle;Signal;HPM_P1;HPM_P2
2023/11/11 00:00:29;;;;;;;24.13;11.88;;;;;;;;;;6313078;28;20055;-65
2023/11/11 00:03:34;;;;;;;11.80;7.32;;;;;;;;;;6295952;28;20048;-64
2023/11/11 00:06:36;;;;;;;;;;;;;;;;;;6313215;28;20048;-65
2023/11/11 00:09:38;;;;;;;8.77;5.82;;;;;;;;;;6311985;28;19935;-64
2023/11/11 00:12:40;;;;;;;7.72;5.78;;;;;;;;;;6312494;28;20439;-65
2023/11/11 00:15:44;;;;;;;8.10;5.10;;;;;;;;;;6312425;28;20052;-65
2023/11/11 00:18:46;;;;;;;7.47;4.88;;;;;;;;;;6312629;28;20066;-65
2023/11/11 00:21:49;;;;;;;7.82;5.40;;;;;;;;;;6311971;28;20067;-67
2023/11/11 00:24:54;;;;;;;8.45;4.78;;;;;;;;;;6302045;28;20055;-65
2023/11/11 00:27:56;;;;;;;7.03;4.32;;;;;;;;;;6311888;28;20055;-65
2023/11/11 00:30:59;;;;;;;6.22;3.67;;;;;;;;;;6312050;28;20056;-65
2023/11/11 00:34:02;;;;;;;8.15;4.05;;;;;;;;;;6292914;28;20536;-65
2023/11/11 00:37:04;;;;;;;8.25;4.90;;;;;;;;;;6300721;28;20074;-65
2023/11/11 00:40:06;;;;;;;10.02;4.45;;;;;;;;;;6294037;28;20106;-65
2023/11/11 00:43:10;;;;;;;6.40;4.35;;;;;;;;;;6311602;28;20129;-64
2023/11/11 00:46:12;;;;;;;7.25;3.63;;;;;;;;;;6312012;28;20810;-65
2023/11/11 00:49:14;;;;;;;6.28;4.28;;;;;;;;;;6308147;28;20055;-65
2023/11/11 00:52:20;;;;;;;6.45;4.13;;;;;;;;;;6294852;28;20109;-65
2023/11/11 00:55:22;;;;;;;5.80;4.03;;;;;;;;;;6311053;28;20648;-65
2023/11/11 00:58:24;;;;;;;7.00;3.40;;;;;;;;;;6293422;28;20040;-66
2023/11/11 01:01:26;;;;;;;8.60;3.47;;;;;;;;;;6311412;28;20051;-65
2023/11/11 01:04:28;;;;;;;6.82;4.50;;;;;;;;;;6310619;28;20128;-65
2023/11/11 01:07:30;;;;;;;6.57;3.95;;;;;;;;;;6310820;28;20938;-65
2023/11/11 01:10:37;;;;;;;6.97;3.25;;;;;;;;;;6307957;28;20078;-65
2023/11/11 01:13:39;;;;;;;7.15;4.05;;;;;;;;;;6302255;28;20083;-65
2023/11/11 01:16:41;;;;;;;7.32;4.38;;;;;;;;;;6309098;28;20454;-65
2023/11/11 01:19:43;;;;;;;6.53;4.07;;;;;;;;;;6309605;28;20048;-65
2023/11/11 01:22:46;;;;;;;7.30;4.45;;;;;;;;;;6300795;28;20135;-65
2023/11/11 01:25:48;;;;;;;7.60;4.68;;;;;;;;;;6309862;28;20458;-65
2023/11/11 01:28:51;;;;;;;6.38;4.63;;;;;;;;;;6293964;28;20059;-65
2023/11/11 01:31:53;;;;;;;6.97;4.07;;;;;;;;;;6310937;28;20047;-65
2023/11/11 01:34:55;;;;;;;7.07;4.63;;;;;;;;;;6299603;28;20048;-65
2023/11/11 01:37:57;;;;;;;7.35;4.15;;;;;;;;;;6310992;28;20363;-65
2023/11/11 01:40:59;;;;;;;7.35;4.63;;;;;;;;;;6309315;28;20146;-65
2023/11/11 01:44:01;;;;;;;8.43;4.85;;;;;;;;;;6311212;28;20047;-65
2023/11/11 01:47:06;;;;;;;8.38;6.05;;;;;;;;;;6310468;28;20067;-65
2023/11/11 01:50:09;;;;;;;9.10;4.90;;;;;;;;;;6285180;28;20044;-65
2023/11/11 01:53:15;;;;;;;10.48;5.65;;;;;;;;;;6293995;28;20052;-65
2023/11/11 01:56:17;;;;;;;;;;;;;;;;;;6311066;28;20048;-65
2023/11/11 01:59:19;;;;;;;8.13;6.05;;;;;;;;;;6293957;28;19930;-65
2023/11/11 02:02:21;;;;;;;7.75;4.93;;;;;;;;;;6298094;28;20132;-64
2023/11/11 02:05:24;;;;;;;9.10;5.13;;;;;;;;;;6310589;28;20098;-65
2023/11/11 02:08:30;;;;;;;10.88;5.90;;;;;;;;;;6294551;28;20566;-65
2023/11/11 02:11:32;;;;;;;10.45;7.07;;;;;;;;;;6310684;28;20104;-65
2023/11/11 02:14:37;;;;;;;10.50;6.53;;;;;;;;;;6310086;28;20048;-66
2023/11/11 02:17:40;;;;;;;10.13;7.07;;;;;;;;;;6309908;28;20060;-66
2023/11/11 02:20:42;;;;;;;9.90;7.13;;;;;;;;;;6291739;28;20507;-65
2023/11/11 02:23:46;;;;;;;12.07;7.05;;;;;;;;;;6294558;28;20052;-65
2023/11/11 02:26:48;;;;;;;9.15;5.78;;;;;;;;;;6274900;28;20439;-65
2023/11/11 02:29:50;;;;;;;12.18;6.55;;;;;;;;;;6310015;28;20051;-65
2023/11/11 02:32:52;;;;;;;9.07;5.75;;;;;;;;;;6309522;28;20075;-65
2023/11/11 02:35:54;;;;;;;11.60;7.22;;;;;;;;;;6309536;28;20040;-64
2023/11/11 02:38:56;;;;;;;8.38;6.25;;;;;;;;;;6295343;28;20048;-65
2023/11/11 02:41:59;;;;;;;9.27;5.93;;;;;;;;;;6310403;28;20051;-65
2023/11/11 02:45:01;;;;;;;11.20;6.80;;;;;;;;;;6299335;28;20055;-65
2023/11/11 02:48:04;;;;;;;9.20;6.00;;;;;;;;;;6309939;28;20040;-65
2023/11/11 02:51:06;;;;;;;8.88;6.45;;;;;;;;;;6309363;28;20136;-65
2023/11/11 02:54:09;;;;;;;9.88;5.88;;;;;;;;;;6294195;28;20074;-65
2023/11/11 02:57:11;;;;;;;7.80;6.88;;;;;;;;;;6298568;28;20044;-65
2023/11/11 03:00:13;;;;;;;8.25;6.22;;;;;;;;;;6309151;28;20086;-65
2023/11/11 03:03:15;;;;;;;10.07;5.30;;;;;;;;;;6311941;28;20110;-65
2023/11/11 03:06:18;;;;;;;9.68;5.32;;;;;;;;;;6313570;28;20048;-64
2023/11/11 03:09:20;;;;;;;7.88;5.03;;;;;;;;;;6314051;28;20047;-65
2023/11/11 03:12:22;;;;;;;7.40;5.28;;;;;;;;;;6305143;28;20047;-65
2023/11/11 03:15:24;;;;;;;9.65;6.53;;;;;;;;;;6314441;28;20132;-65
2023/11/11 03:18:26;;;;;;;6.63;4.35;;;;;;;;;;6300056;28;20533;-65
2023/11/11 03:21:28;;;;;;;8.10;5.35;;;;;;;;;;6313471;28;20070;-65
2023/11/11 03:24:31;;;;;;;8.30;5.28;;;;;;;;;;6312826;28;20040;-65
2023/11/11 03:27:33;;;;;;;8.80;5.07;;;;;;;;;;6311594;28;20050;-65
2023/11/11 03:30:35;;;;;;;7.45;4.38;;;;;;;;;;6313435;28;20048;-65
2023/11/11 03:33:38;;;;;;;8.20;5.85;;;;;;;;;;6299637;28;20611;-65
2023/11/11 03:36:41;;;;;;;8.07;5.55;;;;;;;;;;6298224;28;20454;-65
2023/11/11 03:39:44;;;;;;;7.78;6.38;;;;;;;;;;6312993;28;20055;-65
2023/11/11 03:42:46;;;;;;;11.05;6.28;;;;;;;;;;6308704;28;20766;-65
2023/11/11 03:45:49;;;;;;;8.75;5.63;;;;;;;;;;6301212;28;20040;-65
2023/11/11 03:48:51;;;;;;;8.75;5.95;;;;;;;;;;6312750;28;20519;-65
2023/11/11 03:51:53;;;;;;;10.18;5.82;;;;;;;;;;6296243;28;20579;-64
2023/11/11 03:54:55;;;;;;;9.27;5.00;;;;;;;;;;6313384;28;20051;-64
2023/11/11 03:57:57;;;;;;;9.25;6.53;;;;;;;;;;6313485;28;20047;-65
2023/11/11 04:00:59;;;;;;;8.52;5.45;;;;;;;;;;6312747;28;20127;-65
2023/11/11 04:04:02;;;;;;;8.43;5.60;;;;;;;;;;6312485;28;20642;-64
2023/11/11 04:07:05;;;;;;;9.23;5.20;;;;;;;;;;6293739;28;20059;-64
2023/11/11 04:10:08;;;;;;;7.65;5.03;;;;;;;;;;6278548;28;20756;-64
2023/11/11 04:13:12;;;;;;;9.63;5.82;;;;;;;;;;6298143;28;20059;-64
2023/11/11 04:16:14;;;;;;;8.18;5.05;;;;;;;;;;6302866;28;20545;-64
2023/11/11 04:19:16;;;;;;;8.73;5.32;;;;;;;;;;6312190;28;20763;-65
2023/11/11 04:22:20;;;;;;;9.45;5.38;;;;;;;;;;6294018;28;20459;-64
2023/11/11 04:25:22;;;;;;;8.38;4.90;;;;;;;;;;6296165;28;20037;-65
2023/11/11 04:28:27;;;;;;;7.80;4.13;;;;;;;;;;6312561;28;20537;-65
2023/11/11 04:31:29;;;;;;;5.38;2.95;;;;;;;;;;6312816;28;20421;-64
2023/11/11 04:34:31;;;;;;;8.55;5.57;;;;;;;;;;6298330;28;20048;-65
2023/11/11 04:37:34;;;;;;;8.30;4.45;;;;;;;;;;6311890;28;20043;-64
2023/11/11 04:40:36;;;;;;;7.35;4.53;;;;;;;;;;6305792;28;20443;-65
2023/11/11 04:43:38;;;;;;;9.70;4.80;;;;;;;;;;6305232;28;20050;-64
2023/11/11 04:46:40;;;;;;;8.07;5.55;;;;;;;;;;6311719;28;20056;-65
2023/11/11 04:49:42;;;;;;;8.45;5.68;;;;;;;;;;6311013;28;20431;-65
2023/11/11 04:52:45;;;;;;;8.23;4.75;;;;;;;;;;6312083;28;20050;-65
2023/11/11 04:55:47;;;;;;;8.73;5.20;;;;;;;;;;6325992;27;20484;-64
2023/11/11 04:58:49;;;;;;;9.68;5.88;;;;;;;;;;6311152;28;20047;-64
2023/11/11 05:01:53;;;;;;;9.60;5.38;;;;;;;;;;6311700;28;20577;-64
2023/11/11 05:04:55;;;;;;;7.35;5.03;;;;;;;;;;6304067;28;20126;-64
2023/11/11 05:07:57;;;;;;;8.13;5.82;;;;;;;;;;6306818;28;20047;-64
2023/11/11 05:10:59;;;;;;;9.55;5.78;;;;;;;;;;6305742;28;20122;-64
2023/11/11 05:14:03;;;;;;;8.15;5.40;;;;;;;;;;6311920;28;20071;-64
2023/11/11 05:17:07;;;;;;;;;;;;;;;;;;6314979;28;20067;-65
2023/11/11 05:20:13;;;;;;;8.77;6.05;;;;;;;;;;6304949;28;20515;-65
2023/11/11 05:23:16;;;;;;;7.72;5.47;;;;;;;;;;6306921;28;20545;-65
2023/11/11 05:26:19;;;;;;;10.45;6.60;;;;;;;;;;6298677;28;20058;-65
2023/11/11 05:29:21;;;;;;;9.82;5.38;;;;;;;;;;6311441;28;20044;-64
2023/11/11 05:32:23;;;;;;;9.52;5.10;;;;;;;;;;6307476;28;20067;-64
2023/11/11 05:35:25;;;;;;;8.38;5.32;;;;;;;;;;6306835;28;20074;-64
2023/11/11 05:38:27;;;;;;;8.10;5.50;;;;;;;;;;6308466;28;20040;-64
2023/11/11 05:41:32;;;;;;;7.05;4.57;;;;;;;;;;6309888;28;20040;-65
2023/11/11 05:44:34;;;;;;;6.10;3.92;;;;;;;;;;6309974;28;20040;-64
2023/11/11 05:47:36;;;;;;;6.25;3.83;;;;;;;;;;6285070;28;20052;-65
2023/11/11 05:50:38;;;;;;;6.95;4.93;;;;;;;;;;6308675;28;20044;-64
2023/11/11 05:53:40;;;;;;;6.60;4.05;;;;;;;;;;6311003;28;20047;-63
2023/11/11 05:56:42;;;;;;;7.38;4.75;;;;;;;;;;6304597;28;20239;-64
2023/11/11 05:59:44;;;;;;;5.75;4.20;;;;;;;;;;6307407;28;20181;-64
2023/11/11 06:02:47;;;;;;;8.02;4.57;;;;;;;;;;6310404;28;20075;-64
2023/11/11 06:05:49;;;;;;;8.05;4.63;;;;;;;;;;6295439;28;20047;-65
2023/11/11 06:08:51;;;;;;;8.43;4.82;;;;;;;;;;6308040;28;20749;-64
2023/11/11 06:11:53;;;;;;;6.82;4.57;;;;;;;;;;6309243;28;20434;-65
2023/11/11 06:14:55;;;;;;;7.95;6.13;;;;;;;;;;6310140;28;20436;-64
2023/11/11 06:17:57;;;;;;;8.55;6.93;;;;;;;;;;6309083;28;20048;-63
2023/11/11 06:20:59;;;;;;;9.15;6.25;;;;;;;;;;6308008;28;20036;-64
2023/11/11 06:24:01;;;;;;;9.05;5.88;;;;;;;;;;6307557;28;20048;-64
2023/11/11 06:27:04;;;;;;;11.40;7.57;;;;;;;;;;6307934;28;20466;-64
2023/11/11 06:30:08;;;;;;;12.38;6.50;;;;;;;;;;6308918;28;20080;-64
2023/11/11 06:33:11;;;;;;;9.70;6.50;;;;;;;;;;6309159;28;20071;-64
2023/11/11 06:36:15;;;;;;;11.80;7.38;;;;;;;;;;6310629;28;20601;-64
2023/11/11 06:39:17;;;;;;;17.02;8.93;;;;;;;;;;6314440;28;20048;-64
2023/11/11 06:42:19;;;;;;;11.20;6.07;;;;;;;;;;6315218;28;20043;-64
2023/11/11 06:45:21;;;;;;;13.77;7.38;;;;;;;;;;6314598;28;20067;-64
2023/11/11 06:48:24;;;;;;;12.80;7.95;;;;;;;;;;6314543;28;20094;-64
2023/11/11 06:51:27;;;;;;;11.15;7.43;;;;;;;;;;6314465;28;20044;-64
2023/11/11 06:54:30;;;;;;;13.25;8.77;;;;;;;;;;6314954;28;20087;-64
2023/11/11 06:57:32;;;;;;;9.85;6.30;;;;;;;;;;6314377;28;20043;-65
2023/11/11 07:00:34;;;;;;;10.52;7.30;;;;;;;;;;6303111;28;20700;-64
2023/11/11 07:03:36;;;;;;;9.75;6.47;;;;;;;;;;6314107;28;20046;-64
2023/11/11 07:06:38;;;;;;;9.88;7.03;;;;;;;;;;6314006;28;20055;-64
2023/11/11 07:09:41;;;;;;;12.00;7.28;;;;;;;;;;6313526;28;20032;-64
2023/11/11 07:12:44;;;;;;;11.38;8.70;;;;;;;;;;6314156;28;20531;-64
2023/11/11 07:15:47;;;;;;;14.15;8.68;;;;;;;;;;6308439;28;20055;-66
2023/11/11 07:18:49;;;;;;;11.48;6.90;;;;;;;;;;6310575;28;20054;-65
2023/11/11 07:21:51;;;;;;;13.45;7.60;;;;;;;;;;6309495;28;20044;-64
2023/11/11 07:24:56;;;;;;;10.43;6.50;;;;;;;;;;6304049;28;20138;-64
2023/11/11 07:27:59;;;;;;;12.23;7.00;;;;;;;;;;6311137;28;20062;-65
2023/11/11 07:31:01;;;;;;;10.45;7.53;;;;;;;;;;6311579;28;20052;-65
2023/11/11 07:34:06;;;;;;;9.65;6.20;;;;;;;;;;6311170;28;20048;-64
2023/11/11 07:37:08;;;;;;;11.40;9.43;;;;;;;;;;6314289;28;20052;-65
2023/11/11 07:40:12;;;;;;;9.02;6.88;;;;;;;;;;6312138;28;20044;-64
2023/11/11 07:43:14;;;;;;;10.68;7.72;;;;;;;;;;6311135;28;20043;-64
2023/11/11 07:46:19;;;;;;;13.75;7.30;;;;;;;;;;6311060;28;20074;-65
2023/11/11 07:49:22;;;;;;;8.23;5.15;;;;;;;;;;6311399;28;20036;-65
2023/11/11 07:52:25;;;;;;;9.75;4.43;;;;;;;;;;6294115;28;20055;-65
2023/11/11 07:55:27;;;;;;;10.05;5.03;;;;;;;;;;6311309;28;20732;-65
2023/11/11 07:58:29;;;;;;;9.25;6.05;;;;;;;;;;6309834;28;20212;-64
2023/11/11 08:01:35;;;;;;;8.07;4.68;;;;;;;;;;6295378;28;20041;-64
2023/11/11 08:04:37;;;;;;;8.45;6.07;;;;;;;;;;6306524;28;20525;-65
2023/11/11 08:07:40;;;;;;;8.30;4.80;;;;;;;;;;6312418;28;20139;-64
2023/11/11 08:10:42;;;;;;;8.05;6.03;;;;;;;;;;6313018;28;20036;-64
2023/11/11 08:13:44;;;;;;;7.65;5.22;;;;;;;;;;6311112;28;20434;-64
2023/11/11 08:16:49;;;;;;;9.80;6.15;;;;;;;;;;6312216;28;20052;-63
2023/11/11 08:19:52;;;;;;;7.60;4.43;;;;;;;;;;6311813;28;20033;-64
2023/11/11 08:22:55;;;;;;;10.00;6.07;;;;;;;;;;6311388;28;20052;-64
2023/11/11 08:25:57;;;;;;;10.48;8.05;;;;;;;;;;6311937;28;20070;-64
2023/11/11 08:28:59;;;;;;;10.02;7.65;;;;;;;;;;6306053;28;20074;-64
2023/11/11 08:32:01;;;;;;;10.75;7.47;;;;;;;;;;6311962;28;20037;-65
2023/11/11 08:35:05;;;;;;;8.10;5.43;;;;;;;;;;6296818;28;20077;-64
2023/11/11 08:38:07;;;;;;;8.93;5.75;;;;;;;;;;6312731;28;20048;-64
2023/11/11 08:41:12;;;;;;;8.30;5.38;;;;;;;;;;6309470;28;20036;-64
2023/11/11 08:44:14;;;;;;;7.00;5.28;;;;;;;;;;6312070;28;20044;-64
2023/11/11 08:47:19;;;;;;;5.70;4.53;;;;;;;;;;6311882;28;20450;-64
2023/11/11 08:50:21;;;;;;;;;;;;;;;;;;6312211;28;20102;-64
2023/11/11 08:53:25;;;;;;;7.03;4.35;;;;;;;;;;6308827;28;19939;-64
2023/11/11 08:56:30;;;;;;;8.73;3.78;;;;;;;;;;6298305;28;20546;-64
2023/11/11 08:59:32;;;;;;;8.73;5.18;;;;;;;;;;6304798;28;20036;-64
2023/11/11 09:02:35;;;;;;;6.40;4.88;;;;;;;;;;6311639;28;20390;-64
2023/11/11 09:05:37;;;;;;;8.10;5.72;;;;;;;;;;6295891;28;20048;-64
2023/11/11 09:08:39;;;;;;;7.45;4.57;;;;;;;;;;6306630;28;20062;-64
2023/11/11 09:11:42;;;;;;;5.22;3.60;;;;;;;;;;6311577;28;20048;-64
2023/11/11 09:14:44;;;;;;;6.40;3.80;;;;;;;;;;6311559;28;20177;-64
2023/11/11 09:17:47;;;;;;;6.70;3.75;;;;;;;;;;6311716;28;20052;-64
2023/11/11 09:20:49;;;;;;;9.48;4.20;;;;;;;;;;6310806;28;20915;-64
2023/11/11 09:23:52;;;;;;;9.05;5.53;;;;;;;;;;6310780;28;20128;-65
2023/11/11 09:26:55;;;;;;;7.57;4.20;;;;;;;;;;6311837;28;20054;-64
2023/11/11 09:30:00;;;;;;;6.93;4.03;;;;;;;;;;6309879;28;20047;-64
2023/11/11 09:33:03;;;;;;;6.63;4.82;;;;;;;;;;6310393;28;20530;-64
2023/11/11 09:36:06;;;;;;;6.60;4.40;;;;;;;;;;6304126;28;20056;-65
2023/11/11 09:39:10;;;;;;;7.15;4.03;;;;;;;;;;6307926;28;20075;-65
2023/11/11 09:42:12;;;;;;;9.77;3.75;;;;;;;;;;6307564;28;20051;-65
2023/11/11 09:45:14;;;;;;;6.65;4.43;;;;;;;;;;6306906;28;20036;-65
2023/11/11 09:48:20;;;;;;;6.60;4.88;;;;;;;;;;6304473;28;20063;-66
2023/11/11 09:51:22;;;;;;;8.38;4.03;;;;;;;;;;6308277;28;20047;-65
2023/11/11 09:54:24;;;;;;;6.05;3.70;;;;;;;;;;6307334;28;20043;-66
2023/11/11 09:57:32;;;;;;;6.65;4.03;;;;;;;;;;6315511;28;20064;-65
2023/11/11 10:00:34;;;;;;;5.20;4.10;;;;;;;;;;6306689;28;20092;-65
2023/11/11 10:03:36;;;;;;;5.72;3.53;;;;;;;;;;6307348;28;20048;-65
2023/11/11 10:06:39;;;;;;;7.18;3.50;;;;;;;;;;6308565;28;20821;-63
2023/11/11 10:09:42;;;;;;;5.03;3.40;;;;;;;;;;6309458;28;20051;-64
2023/11/11 10:12:44;;;;;;;4.80;2.92;;;;;;;;;;6296795;28;20048;-65
2023/11/11 10:15:47;;;;;;;5.75;3.08;;;;;;;;;;6307770;28;20194;-65
2023/11/11 10:18:50;;;;;;;6.22;3.92;;;;;;;;;;6314567;28;20059;-66
2023/11/11 10:21:59;;;;;;;5.65;3.08;;;;;;;;;;6311372;28;20579;-65
2023/11/11 10:25:10;;;;;;;7.18;3.47;;;;;;;;;;6314506;28;20044;-67
2023/11/11 10:28:16;;;;;;;8.80;4.80;;;;;;;;;;6314104;28;20063;-65
2023/11/11 10:31:23;;;;;;;7.35;5.53;;;;;;;;;;6311643;28;20108;-65
2023/11/11 10:34:26;;;;;;;10.10;6.05;;;;;;;;;;6307341;28;20703;-65
2023/11/11 10:37:29;;;;;;;23.85;10.05;;;;;;;;;;6312442;28;20056;-66
2023/11/11 10:40:34;;;;;;;7.55;5.63;;;;;;;;;;6302920;28;20106;-66
2023/11/11 10:43:36;;;;;;;8.80;6.50;;;;;;;;;;6302992;28;20102;-65
2023/11/11 10:46:40;;;;;;;13.55;7.47;;;;;;;;;;6310779;28;20048;-65
2023/11/11 10:49:44;;;;;;;6.05;4.25;;;;;;;;;;6294177;28;20032;-66
2023/11/11 10:52:47;;;;;;;6.60;3.60;;;;;;;;;;6303837;28;20056;-65
2023/11/11 10:55:49;;;;;;;5.75;2.75;;;;;;;;;;6298486;28;20052;-66
2023/11/11 10:58:53;;;;;;;5.60;2.95;;;;;;;;;;6307723;28;20074;-65
2023/11/11 11:01:56;;;;;;;4.10;1.77;;;;;;;;;;6287892;28;20044;-66
2023/11/11 11:05:05;;;;;;;2.97;2.20;;;;;;;;;;6301663;28;20498;-66
2023/11/11 11:08:26;;;;;;;5.03;2.28;;;;;;;;;;6293698;28;20051;-67
2023/11/11 11:11:37;;;;;;;16.60;7.10;;;;;;;;;;6305525;28;20457;-67
2023/11/11 11:14:51;;;;;;;3.13;2.25;;;;;;;;;;6296424;28;20044;-67
2023/11/11 11:17:55;;;;;;;3.88;1.83;;;;;;;;;;6290963;28;20085;-69
2023/11/11 11:21:02;;;;;;;3.55;1.75;;;;;;;;;;6296523;28;20037;-66
2023/11/11 11:24:12;;;;;;;3.63;1.48;;;;;;;;;;6303065;28;20044;-66
2023/11/11 11:27:14;;;;;;;3.88;1.98;;;;;;;;;;6297083;28;20043;-66
2023/11/11 11:30:23;;;;;;;4.85;3.03;;;;;;;;;;6310370;28;20064;-65
2023/11/11 11:33:28;;;;;;;4.47;2.63;;;;;;;;;;6292408;28;20051;-66
2023/11/11 11:36:51;;;;;;;4.65;2.03;;;;;;;;;;6309754;28;20073;-66
2023/11/11 11:40:00;;;;;;;6.10;2.22;;;;;;;;;;6295687;28;20052;-66
2023/11/11 11:43:11;;;;;;;9.07;5.32;;;;;;;;;;6296930;28;20036;-66
2023/11/11 11:46:13;;;;;;;4.82;2.63;;;;;;;;;;6310526;28;20051;-66
2023/11/11 11:49:16;;;;;;;8.00;3.45;;;;;;;;;;6309267;28;20067;-67
2023/11/11 11:52:19;;;;;;;8.25;5.65;;;;;;;;;;6317201;28;20055;-66
2023/11/11 11:55:22;;;;;;;6.68;3.38;;;;;;;;;;6311544;28;20048;-66
2023/11/11 11:58:25;;;;;;;4.22;2.67;;;;;;;;;;6312597;28;20152;-66
2023/11/11 12:01:31;;;;;;;6.03;3.10;;;;;;;;;;6307594;28;20047;-67
2023/11/11 12:04:33;;;;;;;7.20;3.88;;;;;;;;;;6312926;28;20044;-66
2023/11/11 12:07:37;;;;;;;2.97;2.00;;;;;;;;;;6313497;28;20135;-66
2023/11/11 12:10:47;;;;;;;2.42;2.08;;;;;;;;;;6299272;28;20518;-65
2023/11/11 12:13:51;;;;;;;5.68;1.23;;;;;;;;;;6312980;28;20533;-66
2023/11/11 12:16:53;;;;;;;1.92;1.33;;;;;;;;;;6312599;28;20043;-66
2023/11/11 12:19:57;;;;;;;4.45;1.08;;;;;;;;;;6300897;28;20047;-66
2023/11/11 12:23:00;;;;;;;2.58;2.30;;;;;;;;;;6312981;28;20074;-66
2023/11/11 12:26:02;;;;;;;1.92;0.85;;;;;;;;;;6312177;28;20082;-65
2023/11/11 12:29:05;;;;;;;1.60;0.80;;;;;;;;;;6306701;28;20048;-66
2023/11/11 12:32:13;;;;;;;5.50;4.28;;;;;;;;;;6295235;28;20035;-67
2023/11/11 12:35:16;;;;;;;3.38;1.73;;;;;;;;;;6311261;28;20542;-66
2023/11/11 12:38:25;;;;;;;3.83;1.38;;;;;;;;;;6312730;28;20047;-66
2023/11/11 12:41:28;;;;;;;3.55;2.13;;;;;;;;;;6313369;28;20070;-66
2023/11/11 12:44:37;;;;;;;6.78;1.08;;;;;;;;;;6296810;28;20036;-67
2023/11/11 12:47:39;;;;;;;2.42;1.52;;;;;;;;;;6312883;28;20048;-66
2023/11/11 12:50:43;;;;;;;5.30;2.72;;;;;;;;;;6312414;28;20048;-67
2023/11/11 12:53:52;;;;;;;3.20;2.22;;;;;;;;;;6312460;28;20058;-66
2023/11/11 12:56:54;;;;;;;5.07;3.92;;;;;;;;;;6313079;28;20047;-67
2023/11/11 12:59:56;;;;;;;13.90;5.22;;;;;;;;;;6312060;28;20040;-66
2023/11/11 13:03:01;;;;;;;3.08;1.88;;;;;;;;;;6311867;28;20075;-66
2023/11/11 13:06:03;;;;;;;4.78;1.95;;;;;;;;;;6311633;28;20040;-66
2023/11/11 13:09:13;;;;;;;4.38;2.42;;;;;;;;;;6311695;28;20044;-67
2023/11/11 13:12:17;;;;;;;3.70;2.40;;;;;;;;;;6311051;28;20493;-66
2023/11/11 13:15:19;;;;;;;10.40;6.18;;;;;;;;;;6311025;28;20047;-66
2023/11/11 13:18:24;;;;;;;11.32;6.00;;;;;;;;;;6311315;28;20043;-67
2023/11/11 13:21:27;;;;;;;5.43;3.05;;;;;;;;;;6310638;28;20051;-66
2023/11/11 13:24:38;;;;;;;2.97;1.83;;;;;;;;;;6818418;22;20052;-69
2023/11/11 13:27:40;;;;;;;3.70;1.60;;;;;;;;;;6253217;28;21093;-68
2023/11/11 13:30:42;;;;;;;2.85;1.42;;;;;;;;;;6271058;28;20040;-68
2023/11/11 13:33:47;;;;;;;3.33;1.65;;;;;;;;;;6261008;28;20056;-68
2023/11/11 13:36:50;;;;;;;3.33;1.85;;;;;;;;;;6240748;28;20057;-69
2023/11/11 13:39:53;;;;;;;5.93;3.03;;;;;;;;;;6261499;28;20053;-69
2023/11/11 13:42:57;;;;;;;3.55;1.50;;;;;;;;;;6261647;28;20518;-69
2023/11/11 13:45:59;;;;;;;1.17;0.63;;;;;;;;;;6260293;28;21219;-69
2023/11/11 13:49:04;;;;;;;3.05;2.33;;;;;;;;;;6260987;28;20053;-68
2023/11/11 13:52:06;;;;;;;1.70;1.35;;;;;;;;;;6259892;28;20052;-69
2023/11/11 13:55:09;;;;;;;7.97;3.05;;;;;;;;;;6261580;28;20044;-69
2023/11/11 13:58:11;;;;;;;1.02;0.85;;;;;;;;;;6261297;28;20467;-69
2023/11/11 14:01:13;;;;;;;1.98;1.25;;;;;;;;;;6261200;28;20435;-69
2023/11/11 14:04:15;;;;;;;6.50;3.22;;;;;;;;;;6261270;28;20056;-68
2023/11/11 14:07:18;;;;;;;5.78;1.83;;;;;;;;;;6261306;28;20771;-68
2023/11/11 14:10:25;;;;;;;5.50;1.42;;;;;;;;;;6261439;28;20048;-68
2023/11/11 14:13:29;;;;;;;2.95;1.55;;;;;;;;;;6255349;28;20041;-68
2023/11/11 14:16:32;;;;;;;2.40;1.65;;;;;;;;;;6261161;28;20041;-68
2023/11/11 14:19:34;;;;;;;17.77;4.72;;;;;;;;;;6262449;28;20523;-68
2023/11/11 14:22:37;;;;;;;9.20;4.18;;;;;;;;;;6261531;28;20535;-68
2023/11/11 14:25:53;;;;;;;15.43;4.82;;;;;;;;;;6254937;28;20173;-68
2023/11/11 14:28:55;;;;;;;1.83;1.05;;;;;;;;;;6261573;28;20049;-68
2023/11/11 14:31:58;;;;;;;2.63;1.23;;;;;;;;;;6261442;28;20095;-69
2023/11/11 14:35:00;;;;;;;16.80;6.05;;;;;;;;;;6261658;28;20067;-68
2023/11/11 14:38:03;;;;;;;8.48;4.53;;;;;;;;;;6260878;28;20049;-68
2023/11/11 14:41:06;;;;;;;6.45;2.42;;;;;;;;;;6261196;28;20592;-68
2023/11/11 14:44:10;;;;;;;13.00;5.60;;;;;;;;;;6243530;28;20052;-68
2023/11/11 14:47:14;;;;;;;2.92;1.23;;;;;;;;;;6260891;28;20052;-68
2023/11/11 14:50:17;;;;;;;4.50;2.60;;;;;;;;;;6260795;28;20045;-67
2023/11/11 14:53:19;;;;;;;6.50;3.13;;;;;;;;;;6260783;28;20508;-68
2023/11/11 14:56:21;;;;;;;2.83;1.27;;;;;;;;;;6259852;28;20052;-68
2023/11/11 14:59:23;;;;;;;4.05;2.88;;;;;;;;;;6264818;28;20056;-68
2023/11/11 15:02:26;;;;;;;4.03;1.52;;;;;;;;;;6263731;28;20073;-67
2023/11/11 15:05:28;;;;;;;4.18;2.35;;;;;;;;;;6246939;28;20075;-68
2023/11/11 15:08:32;;;;;;;2.45;1.23;;;;;;;;;;6263668;28;20045;-67
2023/11/11 15:11:34;;;;;;;4.22;2.05;;;;;;;;;;6264853;28;20444;-67
2023/11/11 15:14:36;;;;;;;2.25;0.75;;;;;;;;;;6264322;28;20060;-67
2023/11/11 15:17:39;;;;;;;5.45;2.78;;;;;;;;;;6263724;28;20105;-68
2023/11/11 15:20:41;;;;;;;2.50;1.38;;;;;;;;;;6279295;28;20040;-68
2023/11/11 15:23:43;;;;;;;5.18;2.88;;;;;;;;;;6258858;28;20049;-68
2023/11/11 15:26:46;;;;;;;3.63;1.88;;;;;;;;;;6255780;28;20432;-67
2023/11/11 15:29:48;;;;;;;6.05;3.92;;;;;;;;;;6263691;28;20084;-67
2023/11/11 15:32:50;;;;;;;10.60;6.35;;;;;;;;;;6264545;28;20064;-67
2023/11/11 15:35:53;;;;;;;17.95;9.93;;;;;;;;;;6263299;28;20057;-68
2023/11/11 15:38:59;;;;;;;4.18;2.03;;;;;;;;;;6263773;28;20045;-67
2023/11/11 15:42:01;;;;;;;2.50;1.45;;;;;;;;;;6263446;28;20179;-68
2023/11/11 15:45:08;;;;;;;3.13;2.05;;;;;;;;;;6264115;28;20168;-68
2023/11/11 15:48:10;;;;;;;5.07;3.15;;;;;;;;;;6263679;28;20045;-67
2023/11/11 15:51:12;;;;;;;4.28;2.60;;;;;;;;;;6264333;28;20037;-68
2023/11/11 15:54:24;;;;;;;3.80;1.63;;;;;;;;;;6264163;28;20186;-67
2023/11/11 15:57:25;;;;;;;2.20;1.15;;;;;;;;;;6263937;28;20064;-68
2023/11/11 16:00:27;;;;;;;3.25;1.88;;;;;;;;;;6264250;28;20044;-68
2023/11/11 16:03:30;;;;;;;5.93;2.92;;;;;;;;;;6263824;28;20495;-68
2023/11/11 16:06:32;;;;;;;7.22;3.28;;;;;;;;;;6263450;28;20057;-67
2023/11/11 16:09:34;;;;;;;4.85;2.22;;;;;;;;;;6262935;28;20049;-68
2023/11/11 16:12:36;;;;;;;10.98;7.20;;;;;;;;;;6252449;28;20082;-67
2023/11/11 16:15:38;;;;;;;4.70;1.88;;;;;;;;;;6264675;28;20053;-67
2023/11/11 16:18:40;;;;;;;2.08;1.27;;;;;;;;;;6269278;28;20158;-67
2023/11/11 16:21:42;;;;;;;18.17;10.85;;;;;;;;;;6237393;28;20041;-66
2023/11/11 16:24:44;;;;;;;4.72;2.10;;;;;;;;;;6247979;28;20577;-67
2023/11/11 16:27:47;;;;;;;11.85;6.95;;;;;;;;;;6247967;28;20238;-66
2023/11/11 16:30:49;;;;;;;5.38;4.43;;;;;;;;;;6262671;28;20048;-67
2023/11/11 16:33:54;;;;;;;1.63;0.90;;;;;;;;;;6241071;28;20136;-67
2023/11/11 16:36:56;;;;;;;1.95;0.90;;;;;;;;;;6253006;28;20057;-67
2023/11/11 16:39:58;;;;;;;1.70;0.70;;;;;;;;;;6236224;28;20637;-67
2023/11/11 16:43:00;;;;;;;7.15;2.33;;;;;;;;;;6254136;28;20037;-67
2023/11/11 16:46:03;;;;;;;5.28;1.90;;;;;;;;;;6251700;28;20141;-67
2023/11/11 16:49:05;;;;;;;16.17;7.25;;;;;;;;;;6259253;28;20257;-67
2023/11/11 16:52:08;;;;;;;3.42;1.73;;;;;;;;;;6256826;28;20607;-68
2023/11/11 16:55:10;;;;;;;2.30;1.50;;;;;;;;;;6256588;28;20048;-68
2023/11/11 16:58:15;;;;;;;5.25;2.40;;;;;;;;;;6255387;28;20044;-67
2023/11/11 17:01:17;;;;;;;2.05;0.90;;;;;;;;;;6261941;28;20056;-67
2023/11/11 17:04:19;;;;;;;4.35;2.45;;;;;;;;;;6255500;28;20815;-67
2023/11/11 17:07:21;;;;;;;10.20;4.72;;;;;;;;;;6242205;28;20053;-67
2023/11/11 17:10:29;;;;;;;5.28;2.22;;;;;;;;;;6242976;28;20045;-68
2023/11/11 17:13:31;;;;;;;4.22;2.67;;;;;;;;;;6249429;28;20069;-66
2023/11/11 17:16:36;;;;;;;3.60;1.20;;;;;;;;;;6235746;28;20088;-67
2023/11/11 17:19:38;;;;;;;2.65;1.48;;;;;;;;;;6250287;28;20587;-67
2023/11/11 17:22:42;;;;;;;3.63;1.67;;;;;;;;;;6249851;28;20045;-67
2023/11/11 17:25:44;;;;;;;2.67;1.20;;;;;;;;;;6253064;28;20052;-67
2023/11/11 17:28:46;;;;;;;2.00;1.15;;;;;;;;;;6250852;28;20155;-65
2023/11/11 17:31:48;;;;;;;6.75;3.00;;;;;;;;;;6232461;28;20091;-67
2023/11/11 17:34:50;;;;;;;5.20;2.60;;;;;;;;;;6257150;28;20059;-67
2023/11/11 17:37:53;;;;;;;4.05;1.65;;;;;;;;;;6257079;28;20565;-68
2023/11/11 17:40:56;;;;;;;2.97;1.67;;;;;;;;;;6255270;28;20044;-67
2023/11/11 17:43:58;;;;;;;4.22;1.50;;;;;;;;;;6237002;28;20049;-67
2023/11/11 17:47:00;;;;;;;3.63;2.08;;;;;;;;;;6256429;28;20151;-67
2023/11/11 17:50:02;;;;;;;6.25;3.28;;;;;;;;;;6251185;28;20048;-67
2023/11/11 17:53:05;;;;;;;10.88;5.60;;;;;;;;;;6246871;28;20694;-66
2023/11/11 17:56:24;;;;;;;5.68;1.80;;;;;;;;;;6259704;28;20052;-67
2023/11/11 17:59:26;;;;;;;3.00;2.47;;;;;;;;;;6253116;28;20048;-67
2023/11/11 18:02:28;;;;;;;3.97;2.13;;;;;;;;;;6257322;28;20045;-67
2023/11/11 18:05:33;;;;;;;2.20;1.42;;;;;;;;;;6248187;28;20088;-66
2023/11/11 18:08:36;;;;;;;;;;;;;;;;;;6247285;28;20045;-67
2023/11/11 18:11:39;;;;;;;4.05;1.63;;;;;;;;;;6251700;28;19929;-66
2023/11/11 18:14:41;;;;;;;4.95;2.13;;;;;;;;;;6237695;28;20067;-66
2023/11/11 18:17:43;;;;;;;4.57;2.05;;;;;;;;;;6253288;28;20135;-67